sensor_id;sensor_type;location;lat;lon;timestamp;pressure;altitude;pressure_sealevel;temperature;humidity
29903;BME280;30288;50.514;9.678;2023-04-19T00:01:16;99544.28;;;9.65;100.00
29903;BME280;30288;50.514;9.678;2023-04-19T00:03:22;99535.09;;;9.64;100.00
29903;BME280;30288;50.514;9.678;2023-04-19T00:05:28;99534.16;;;9.72;100.00
29903;BME280;30288;50.514;9.678;2023-04-19T00:07:34;99538.25;;;9.82;100.00
29903;BME280;30288;50.514;9.678;2023-04-19T00:09:39;99532.44;;;9.77;100.00
29903;BME280;30288;50.514;9.678;2023-04-19T00:11:44;99530.75;;;9.76;100.00
29903;BME280;30288;50.514;9.678;2023-04-19T00:13:49;99534.16;;;9.73;100.00
29903;BME280;30288;50.514;9.678;2023-04-19T00:15:55;99524.16;;;9.69;100.00
29903;BME280;30288;50.514;9.678;2023-04-19T00:18:02;99521.69;;;9.64;100.00
29903;BME280;30288;50.514;9.678;2023-04-19T00:20:09;99515.84;;;9.60;100.00
29903;BME280;30288;50.514;9.678;2023-04-19T00:22:15;99516.72;;;9.58;100.00
29903;BME280;30288;50.514;9.678;2023-04-19T00:24:21;99520.84;;;9.63;100.00
29903;BME280;30288;50.514;9.678;2023-04-19T00:26:26;99513.44;;;9.51;100.00
29903;BME280;30288;50.514;9.678;2023-04-19T00:28:33;99517.66;;;9.49;100.00
29903;BME280;30288;50.514;9.678;2023-04-19T00:30:38;99520.16;;;9.51;100.00
29903;BME280;30288;50.514;9.678;2023-04-19T00:32:44;99515.91;;;9.57;100.00
29903;BME280;30288;50.514;9.678;2023-04-19T00:34:53;99515.78;;;9.66;100.00
29903;BME280;30288;50.514;9.678;2023-04-19T00:36:58;99512.38;;;9.71;100.00
29903;BME280;30288;50.514;9.678;2023-04-19T00:39:06;99507.34;;;9.74;100.00
29903;BME280;30288;50.514;9.678;2023-04-19T00:41:12;99509.84;;;9.72;100.00
29903;BME280;30288;50.514;9.678;2023-04-19T00:43:18;99507.28;;;9.77;100.00
29903;BME280;30288;50.514;9.678;2023-04-19T00:45:24;99503.94;;;9.75;100.00
29903;BME280;30288;50.514;9.678;2023-04-19T00:47:29;99514.09;;;9.69;100.00
29903;BME280;30288;50.514;9.678;2023-04-19T00:49:35;99509.06;;;9.69;100.00
29903;BME280;30288;50.514;9.678;2023-04-19T00:51:42;99508.97;;;9.75;100.00
29903;BME280;30288;50.514;9.678;2023-04-19T00:53:48;99505.59;;;9.79;100.00
29903;BME280;30288;50.514;9.678;2023-04-19T00:55:55;99503.16;;;9.70;100.00
29903;BME280;30288;50.514;9.678;2023-04-19T00:58:01;99504.03;;;9.67;100.00
29903;BME280;30288;50.514;9.678;2023-04-19T01:00:08;99505.72;;;9.66;100.00
29903;BME280;30288;50.514;9.678;2023-04-19T01:02:14;99504.03;;;9.67;100.00
29903;BME280;30288;50.514;9.678;2023-04-19T01:04:20;99507.34;;;9.74;100.00
29903;BME280;30288;50.514;9.678;2023-04-19T01:06:26;99502.31;;;9.74;100.00
29903;BME280;30288;50.514;9.678;2023-04-19T01:08:34;99491.41;;;9.73;100.00
29903;BME280;30288;50.514;9.678;2023-04-19T01:10:39;99493.97;;;9.69;100.00
29903;BME280;30288;50.514;9.678;2023-04-19T01:12:44;99493.09;;;9.70;100.00
29903;BME280;30288;50.514;9.678;2023-04-19T01:14:49;99488.97;;;9.65;100.00
29903;BME280;30288;50.514;9.678;2023-04-19T01:16:56;99489.78;;;9.66;100.00
29903;BME280;30288;50.514;9.678;2023-04-19T01:19:01;99486.44;;;9.67;100.00
29903;BME280;30288;50.514;9.678;2023-04-19T01:21:07;99491.47;;;9.65;100.00
29903;BME280;30288;50.514;9.678;2023-04-19T01:23:16;99488.19;;;9.60;100.00
29903;BME280;30288;50.514;9.678;2023-04-19T01:25:23;99495.72;;;9.63;100.00
29903;BME280;30288;50.514;9.678;2023-04-19T01:27:28;99494.91;;;9.60;100.00
29903;BME280;30288;50.514;9.678;2023-04-19T01:29:33;99489.06;;;9.59;100.00
29903;BME280;30288;50.514;9.678;2023-04-19T01:31:39;99489.06;;;9.59;100.00
29903;BME280;30288;50.514;9.678;2023-04-19T01:33:44;99477.31;;;9.58;100.00
29903;BME280;30288;50.514;9.678;2023-04-19T01:35:49;99479.00;;;9.56;100.00
29903;BME280;30288;50.514;9.678;2023-04-19T01:37:54;99477.25;;;9.64;100.00
29903;BME280;30288;50.514;9.678;2023-04-19T01:40:02;99484.03;;;9.59;100.00
29903;BME280;30288;50.514;9.678;2023-04-19T01:42:08;99477.28;;;9.61;100.00
29903;BME280;30288;50.514;9.678;2023-04-19T01:44:13;99474.78;;;9.61;100.00
29903;BME280;30288;50.514;9.678;2023-04-19T01:46:18;99476.47;;;9.59;100.00
29903;BME280;30288;50.514;9.678;2023-04-19T01:48:25;99479.06;;;9.53;100.00
29903;BME280;30288;50.514;9.678;2023-04-19T01:50:31;99479.84;;;9.57;100.00
29903;BME280;30288;50.514;9.678;2023-04-19T01:52:38;99475.72;;;9.54;100.00
29903;BME280;30288;50.514;9.678;2023-04-19T01:54:44;99480.72;;;9.54;100.00
29903;BME280;30288;50.514;9.678;2023-04-19T01:56:52;99476.50;;;9.58;100.00
29903;BME280;30288;50.514;9.678;2023-04-19T01:58:58;99472.31;;;9.55;100.00
29903;BME280;30288;50.514;9.678;2023-04-19T02:01:05;99464.00;;;9.50;100.00
29903;BME280;30288;50.514;9.678;2023-04-19T02:03:13;99464.03;;;9.47;100.00
29903;BME280;30288;50.514;9.678;2023-04-19T02:05:19;99460.72;;;9.45;100.00
29903;BME280;30288;50.514;9.678;2023-04-19T02:07:24;99462.41;;;9.43;100.00
29903;BME280;30288;50.514;9.678;2023-04-19T02:09:34;99460.63;;;9.51;100.00
29903;BME280;30288;50.514;9.678;2023-04-19T02:11:40;99456.50;;;9.47;100.00
29903;BME280;30288;50.514;9.678;2023-04-19T02:13:48;99455.72;;;9.44;100.00
29903;BME280;30288;50.514;9.678;2023-04-19T02:15:53;99460.78;;;9.41;100.00
29903;BME280;30288;50.514;9.678;2023-04-19T02:17:58;99460.78;;;9.39;100.00
29903;BME280;30288;50.514;9.678;2023-04-19T02:20:06;99446.50;;;9.41;100.00
29903;BME280;30288;50.514;9.678;2023-04-19T02:22:12;99450.69;;;9.42;100.00
29903;BME280;30288;50.514;9.678;2023-04-19T02:24:17;99454.94;;;9.37;100.00
29903;BME280;30288;50.514;9.678;2023-04-19T02:26:22;99454.97;;;9.36;100.00
29903;BME280;30288;50.514;9.678;2023-04-19T02:28:28;99452.34;;;9.43;100.00
29903;BME280;30288;50.514;9.678;2023-04-19T02:30:36;99456.63;;;9.37;100.00
29903;BME280;30288;50.514;9.678;2023-04-19T02:32:41;99454.16;;;9.34;100.00
29903;BME280;30288;50.514;9.678;2023-04-19T02:34:46;99451.59;;;9.37;100.00
29903;BME280;30288;50.514;9.678;2023-04-19T02:36:51;99450.75;;;9.36;100.00
29903;BME280;30288;50.514;9.678;2023-04-19T02:38:56;99446.50;;;9.43;100.00
29903;BME280;30288;50.514;9.678;2023-04-19T02:41:02;99449.06;;;9.38;100.00
29903;BME280;30288;50.514;9.678;2023-04-19T02:43:08;99454.03;;;9.44;100.00
29903;BME280;30288;50.514;9.678;2023-04-19T02:45:13;99450.69;;;9.45;100.00
29903;BME280;30288;50.514;9.678;2023-04-19T02:47:21;99454.09;;;9.38;100.00
29903;BME280;30288;50.514;9.678;2023-04-19T02:49:26;99455.00;;;9.33;100.00
29903;BME280;30288;50.514;9.678;2023-04-19T02:51:34;99449.91;;;9.40;100.00
29903;BME280;30288;50.514;9.678;2023-04-19T02:53:39;99445.78;;;9.33;100.00
29903;BME280;30288;50.514;9.678;2023-04-19T02:55:44;99449.19;;;9.29;100.00
29903;BME280;30288;50.514;9.678;2023-04-19T02:57:52;99444.91;;;9.36;100.00
29903;BME280;30288;50.514;9.678;2023-04-19T02:59:57;99447.28;;;9.49;100.00
29903;BME280;30288;50.514;9.678;2023-04-19T03:02:03;99451.47;;;9.47;100.00
29903;BME280;30288;50.514;9.678;2023-04-19T03:04:11;99446.50;;;9.41;100.00
29903;BME280;30288;50.514;9.678;2023-04-19T03:06:18;99442.41;;;9.34;100.00
29903;BME280;30288;50.514;9.678;2023-04-19T03:08:24;99439.13;;;9.29;100.00
29903;BME280;30288;50.514;9.678;2023-04-19T03:10:30;99432.47;;;9.22;100.00
29903;BME280;30288;50.514;9.678;2023-04-19T03:12:35;99430.00;;;9.20;100.00
29903;BME280;30288;50.514;9.678;2023-04-19T03:14:40;99430.00;;;9.19;100.00
29903;BME280;30288;50.514;9.678;2023-04-19T03:16:45;99431.69;;;9.20;100.00
29903;BME280;30288;50.514;9.678;2023-04-19T03:18:51;99426.72;;;9.17;100.00
29903;BME280;30288;50.514;9.678;2023-04-19T03:21:03;99430.13;;;9.11;100.00
29903;BME280;30288;50.514;9.678;2023-04-19T03:23:25;99428.44;;;9.10;100.00
29903;BME280;30288;50.514;9.678;2023-04-19T03:25:34;99426.59;;;9.25;100.00
29903;BME280;30288;50.514;9.678;2023-04-19T03:27:57;99420.66;;;9.32;100.00
29903;BME280;30288;50.514;9.678;2023-04-19T03:30:25;99432.47;;;9.22;100.00
29903;BME280;30288;50.514;9.678;2023-04-19T03:32:31;99435.72;;;9.33;100.00
29903;BME280;30288;50.514;9.678;2023-04-19T03:34:37;99433.31;;;9.24;100.00
29903;BME280;30288;50.514;9.678;2023-04-19T03:36:45;99430.75;;;9.30;100.00
29903;BME280;30288;50.514;9.678;2023-04-19T03:38:50;99429.91;;;9.28;100.00
29903;BME280;30288;50.514;9.678;2023-04-19T03:40:56;99421.66;;;9.18;100.00
29903;BME280;30288;50.514;9.678;2023-04-19T03:43:05;99422.47;;;9.19;100.00
29903;BME280;30288;50.514;9.678;2023-04-19T03:45:11;99419.06;;;9.23;100.00
29903;BME280;30288;50.514;9.678;2023-04-19T03:47:20;99419.13;;;9.20;100.00
29903;BME280;30288;50.514;9.678;2023-04-19T03:49:29;99416.59;;;9.21;100.00
29903;BME280;30288;50.514;9.678;2023-04-19T03:51:39;99412.44;;;9.19;100.00
29903;BME280;30288;50.514;9.678;2023-04-19T03:53:47;99410.91;;;9.06;100.00
29903;BME280;30288;50.514;9.678;2023-04-19T03:55:53;99409.13;;;9.14;100.00
29903;BME280;30288;50.514;9.678;2023-04-19T03:57:58;99409.19;;;9.11;100.00
29903;BME280;30288;50.514;9.678;2023-04-19T04:00:14;99409.19;;;9.08;100.00
29903;BME280;30288;50.514;9.678;2023-04-19T04:02:24;99403.28;;;9.13;100.00
29903;BME280;30288;50.514;9.678;2023-04-19T04:04:29;99405.03;;;9.05;100.00
29903;BME280;30288;50.514;9.678;2023-04-19T04:06:34;99407.56;;;9.04;100.00
29903;BME280;30288;50.514;9.678;2023-04-19T04:08:41;99406.72;;;9.05;100.00
29903;BME280;30288;50.514;9.678;2023-04-19T04:10:49;99404.09;;;9.17;100.00
29903;BME280;30288;50.514;9.678;2023-04-19T04:12:55;99396.56;;;9.12;100.00
29903;BME280;30288;50.514;9.678;2023-04-19T04:15:11;99407.50;;;9.10;100.00
29903;BME280;30288;50.514;9.678;2023-04-19T04:17:21;99412.63;;;9.01;100.00
29903;BME280;30288;50.514;9.678;2023-04-19T04:19:27;99404.25;;;9.02;100.00
29903;BME280;30288;50.514;9.678;2023-04-19T04:21:32;99408.47;;;8.98;100.00
29903;BME280;30288;50.514;9.678;2023-04-19T04:23:39;99408.47;;;8.98;100.00
29903;BME280;30288;50.514;9.678;2023-04-19T04:25:59;99414.31;;;8.99;100.00
29903;BME280;30288;50.514;9.678;2023-04-19T04:28:22;99409.28;;;9.02;100.00
29903;BME280;30288;50.514;9.678;2023-04-19T04:30:27;99411.06;;;8.91;100.00
29903;BME280;30288;50.514;9.678;2023-04-19T04:32:33;99412.75;;;8.89;100.00
29903;BME280;30288;50.514;9.678;2023-04-19T04:34:39;99401.06;;;8.85;100.00
29903;BME280;30288;50.514;9.678;2023-04-19T04:36:51;99407.75;;;8.86;100.00
29903;BME280;30288;50.514;9.678;2023-04-19T04:38:58;99405.31;;;8.81;100.00
29903;BME280;30288;50.514;9.678;2023-04-19T04:41:07;99411.16;;;8.82;100.00
29903;BME280;30288;50.514;9.678;2023-04-19T04:43:13;99415.34;;;8.79;100.00
29903;BME280;30288;50.514;9.678;2023-04-19T04:45:18;99415.31;;;8.84;100.00
29903;BME280;30288;50.514;9.678;2023-04-19T04:47:29;99415.34;;;8.81;100.00
29903;BME280;30288;50.514;9.678;2023-04-19T04:49:38;99412.78;;;8.86;100.00
29903;BME280;30288;50.514;9.678;2023-04-19T04:51:43;99413.72;;;8.75;100.00
29903;BME280;30288;50.514;9.678;2023-04-19T04:53:49;99413.81;;;8.68;100.00
29903;BME280;30288;50.514;9.678;2023-04-19T04:55:54;99414.66;;;8.65;100.00
29903;BME280;30288;50.514;9.678;2023-04-19T04:58:01;99406.28;;;8.66;100.00
29903;BME280;30288;50.514;9.678;2023-04-19T05:00:28;99414.59;;;8.71;100.00
29903;BME280;30288;50.514;9.678;2023-04-19T05:02:37;99412.09;;;8.70;100.00
29903;BME280;30288;50.514;9.678;2023-04-19T05:04:43;99422.97;;;8.70;100.00
29903;BME280;30288;50.514;9.678;2023-04-19T05:06:48;99419.66;;;8.68;100.00
29903;BME280;30288;50.514;9.678;2023-04-19T05:08:58;99424.66;;;8.71;100.00
29903;BME280;30288;50.514;9.678;2023-04-19T05:11:08;99425.53;;;8.67;100.00
29903;BME280;30288;50.514;9.678;2023-04-19T05:13:16;99429.72;;;8.65;100.00
29903;BME280;30288;50.514;9.678;2023-04-19T05:15:22;99425.53;;;8.69;100.00
29903;BME280;30288;50.514;9.678;2023-04-19T05:17:29;99434.81;;;8.59;100.00
29903;BME280;30288;50.514;9.678;2023-04-19T05:19:34;99428.09;;;8.61;100.00
29903;BME280;30288;50.514;9.678;2023-04-19T05:21:41;99433.09;;;8.61;100.00
29903;BME280;30288;50.514;9.678;2023-04-19T05:23:47;99423.09;;;8.58;100.00
29903;BME280;30288;50.514;9.678;2023-04-19T05:25:54;99428.09;;;8.61;100.00
29903;BME280;30288;50.514;9.678;2023-04-19T05:28:03;99443.19;;;8.58;100.00
29903;BME280;30288;50.514;9.678;2023-04-19T05:30:21;99433.09;;;8.64;100.00
29903;BME280;30288;50.514;9.678;2023-04-19T05:32:27;99431.38;;;8.69;100.00
29903;BME280;30288;50.514;9.678;2023-04-19T05:34:35;99432.25;;;8.62;100.00
29903;BME280;30288;50.514;9.678;2023-04-19T05:36:40;99432.22;;;8.65;100.00
29903;BME280;30288;50.514;9.678;2023-04-19T05:38:45;99431.38;;;8.69;100.00
29903;BME280;30288;50.514;9.678;2023-04-19T05:40:51;99434.72;;;8.68;100.00
29903;BME280;30288;50.514;9.678;2023-04-19T05:42:56;99430.56;;;8.66;100.00
29903;BME280;30288;50.514;9.678;2023-04-19T05:45:02;99424.66;;;8.70;100.00
29903;BME280;30288;50.514;9.678;2023-04-19T05:47:11;99418.84;;;8.66;100.00
29903;BME280;30288;50.514;9.678;2023-04-19T05:49:45;99417.13;;;8.70;100.00
29903;BME280;30288;50.514;9.678;2023-04-19T05:51:55;99418.69;;;8.82;100.00
29903;BME280;30288;50.514;9.678;2023-04-19T05:54:12;99422.09;;;8.77;100.00
29903;BME280;30288;50.514;9.678;2023-04-19T05:56:22;99416.19;;;8.82;100.00
29903;BME280;30288;50.514;9.678;2023-04-19T05:58:27;99417.81;;;8.86;100.00
29903;BME280;30288;50.514;9.678;2023-04-19T06:00:33;99421.16;;;8.85;100.00
29903;BME280;30288;50.514;9.678;2023-04-19T06:02:47;99422.72;;;8.98;100.00
29903;BME280;30288;50.514;9.678;2023-04-19T06:04:52;99426.81;;;9.05;100.00
29903;BME280;30288;50.514;9.678;2023-04-19T06:07:03;99420.97;;;9.03;100.00
29903;BME280;30288;50.514;9.678;2023-04-19T06:09:23;99429.25;;;9.12;100.00
29903;BME280;30288;50.514;9.678;2023-04-19T06:11:29;99422.53;;;9.14;100.00
29903;BME280;30288;50.514;9.678;2023-04-19T06:13:48;99429.19;;;9.20;100.00
29903;BME280;30288;50.514;9.678;2023-04-19T06:15:54;99425.84;;;9.18;100.00
29903;BME280;30288;50.514;9.678;2023-04-19T06:18:01;99420.69;;;9.27;100.00
29903;BME280;30288;50.514;9.678;2023-04-19T06:20:20;99422.38;;;9.28;100.00
29903;BME280;30288;50.514;9.678;2023-04-19T06:22:25;99414.63;;;9.45;100.00
29903;BME280;30288;50.514;9.678;2023-04-19T06:24:30;99410.28;;;9.56;100.00
29903;BME280;30288;50.514;9.678;2023-04-19T06:26:36;99413.50;;;9.65;100.00
29903;BME280;30288;50.514;9.678;2023-04-19T06:28:41;99413.44;;;9.72;100.00
29903;BME280;30288;50.514;9.678;2023-04-19T06:30:47;99409.22;;;9.74;100.00
29903;BME280;30288;50.514;9.678;2023-04-19T06:32:52;99413.19;;;9.90;100.00
29903;BME280;30288;50.514;9.678;2023-04-19T06:35:00;99416.66;;;9.83;100.00
29903;BME280;30288;50.514;9.678;2023-04-19T06:37:05;99414.00;;;9.92;100.00
29903;BME280;30288;50.514;9.678;2023-04-19T06:39:11;99417.44;;;9.85;100.00
29903;BME280;30288;50.514;9.678;2023-04-19T06:41:16;99404.88;;;9.85;100.00
29903;BME280;30288;50.514;9.678;2023-04-19T06:43:22;99409.13;;;9.81;100.00
29903;BME280;30288;50.514;9.678;2023-04-19T06:45:27;99408.19;;;9.88;100.00
29903;BME280;30288;50.514;9.678;2023-04-19T06:47:34;99406.38;;;9.96;100.00
29903;BME280;30288;50.514;9.678;2023-04-19T06:49:39;99408.16;;;9.90;100.00
29903;BME280;30288;50.514;9.678;2023-04-19T06:51:47;99402.19;;;9.95;100.00
29903;BME280;30288;50.514;9.678;2023-04-19T06:53:52;99403.81;;;9.99;100.00
29903;BME280;30288;50.514;9.678;2023-04-19T06:55:59;99404.59;;;10.03;100.00
29903;BME280;30288;50.514;9.678;2023-04-19T06:58:05;99402.91;;;10.05;100.00
29903;BME280;30288;50.514;9.678;2023-04-19T07:00:13;99396.19;;;10.04;100.00
29903;BME280;30288;50.514;9.678;2023-04-19T07:02:19;99398.69;;;10.05;100.00
29903;BME280;30288;50.514;9.678;2023-04-19T07:04:25;99395.22;;;10.16;100.00
29903;BME280;30288;50.514;9.678;2023-04-19T07:06:31;99399.38;;;10.15;100.00
29903;BME280;30288;50.514;9.678;2023-04-19T07:08:38;99393.34;;;10.27;100.00
29903;BME280;30288;50.514;9.678;2023-04-19T07:10:49;99391.91;;;10.63;100.00
29903;BME280;30288;50.514;9.678;2023-04-19T07:12:55;99391.81;;;10.69;100.00
29903;BME280;30288;50.514;9.678;2023-04-19T07:15:00;99391.16;;;10.58;100.00
29903;BME280;30288;50.514;9.678;2023-04-19T07:17:05;99376.81;;;10.63;100.00
29903;BME280;30288;50.514;9.678;2023-04-19T07:19:10;99382.50;;;10.74;100.00
29903;BME280;30288;50.514;9.678;2023-04-19T07:21:16;99388.13;;;10.85;100.00
29903;BME280;30288;50.514;9.678;2023-04-19T07:23:21;99385.06;;;11.14;100.00
29903;BME280;30288;50.514;9.678;2023-04-19T07:25:28;99379.94;;;11.18;100.00
29903;BME280;30288;50.514;9.678;2023-04-19T07:27:33;99386.91;;;11.06;100.00
29903;BME280;30288;50.514;9.678;2023-04-19T07:29:39;99387.00;;;11.01;100.00
29903;BME280;30288;50.514;9.678;2023-04-19T07:31:45;99378.16;;;11.22;100.00
29903;BME280;30288;50.514;9.678;2023-04-19T07:33:50;99380.78;;;11.17;100.00
29903;BME280;30288;50.514;9.678;2023-04-19T07:35:55;99383.56;;;11.47;100.00
29903;BME280;30288;50.514;9.678;2023-04-19T07:38:01;99388.41;;;11.56;100.00
29903;BME280;30288;50.514;9.678;2023-04-19T07:40:08;99388.41;;;11.14;100.00
29903;BME280;30288;50.514;9.678;2023-04-19T07:42:16;99392.34;;;11.27;100.00
29903;BME280;30288;50.514;9.678;2023-04-19T07:44:21;99397.88;;;11.03;100.00
29903;BME280;30288;50.514;9.678;2023-04-19T07:46:26;99393.28;;;10.79;100.00
29903;BME280;30288;50.514;9.678;2023-04-19T07:48:32;99406.09;;;10.68;100.00
29903;BME280;30288;50.514;9.678;2023-04-19T07:50:38;99411.16;;;10.65;100.00
29903;BME280;30288;50.514;9.678;2023-04-19T07:52:43;99415.38;;;10.65;100.00
29903;BME280;30288;50.514;9.678;2023-04-19T07:54:48;99416.25;;;10.64;100.00
29903;BME280;30288;50.514;9.678;2023-04-19T07:56:53;99411.00;;;10.25;100.00
29903;BME280;30288;50.514;9.678;2023-04-19T07:59:01;99429.72;;;10.06;100.00
29903;BME280;30288;50.514;9.678;2023-04-19T08:01:10;99417.28;;;9.95;100.00
29903;BME280;30288;50.514;9.678;2023-04-19T08:03:16;99424.53;;;10.18;100.00
29903;BME280;30288;50.514;9.678;2023-04-19T08:05:22;99408.63;;;10.16;100.00
29903;BME280;30288;50.514;9.678;2023-04-19T08:07:28;99416.03;;;10.25;100.00
29903;BME280;30288;50.514;9.678;2023-04-19T08:09:33;99407.03;;;10.07;100.00
29903;BME280;30288;50.514;9.678;2023-04-19T08:11:39;99406.41;;;9.95;100.00
29903;BME280;30288;50.514;9.678;2023-04-19T08:13:44;99405.69;;;9.85;100.00
29903;BME280;30288;50.514;9.678;2023-04-19T08:16:12;99398.63;;;10.10;100.00
29903;BME280;30288;50.514;9.678;2023-04-19T08:18:37;99403.91;;;10.48;100.00
29903;BME280;30288;50.514;9.678;2023-04-19T08:20:42;99395.97;;;11.14;100.00
29903;BME280;30288;50.514;9.678;2023-04-19T08:22:47;99393.13;;;11.31;100.00
29903;BME280;30288;50.514;9.678;2023-04-19T08:24:53;99400.16;;;11.57;100.00
29903;BME280;30288;50.514;9.678;2023-04-19T08:26:58;99400.69;;;12.09;100.00
29903;BME280;30288;50.514;9.678;2023-04-19T08:29:03;99402.13;;;12.19;100.00
29903;BME280;30288;50.514;9.678;2023-04-19T08:31:08;99394.41;;;11.90;100.00
29903;BME280;30288;50.514;9.678;2023-04-19T08:33:16;99390.88;;;11.59;100.00
29903;BME280;30288;50.514;9.678;2023-04-19T08:35:22;99392.66;;;11.54;100.00
29903;BME280;30288;50.514;9.678;2023-04-19T08:37:27;99390.13;;;11.54;100.00
29903;BME280;30288;50.514;9.678;2023-04-19T08:39:33;99394.19;;;11.61;100.00
29903;BME280;30288;50.514;9.678;2023-04-19T08:41:39;99391.53;;;11.67;100.00
29903;BME280;30288;50.514;9.678;2023-04-19T08:43:51;99389.47;;;11.84;100.00
29903;BME280;30288;50.514;9.678;2023-04-19T08:45:58;99390.31;;;11.84;100.00
29903;BME280;30288;50.514;9.678;2023-04-19T08:48:04;99380.09;;;11.91;100.00
29903;BME280;30288;50.514;9.678;2023-04-19T08:50:14;99383.59;;;11.83;100.00
29903;BME280;30288;50.514;9.678;2023-04-19T08:52:37;99375.13;;;11.88;100.00
29903;BME280;30288;50.514;9.678;2023-04-19T08:54:56;99381.34;;;11.70;100.00
29903;BME280;30288;50.514;9.678;2023-04-19T08:57:02;99376.44;;;12.02;100.00
29903;BME280;30288;50.514;9.678;2023-04-19T08:59:09;99369.53;;;12.10;100.00
29903;BME280;30288;50.514;9.678;2023-04-19T09:01:20;99363.97;;;11.96;100.00
29903;BME280;30288;50.514;9.678;2023-04-19T09:03:29;99364.28;;;12.18;100.00
29903;BME280;30288;50.514;9.678;2023-04-19T09:05:51;99358.03;;;12.33;100.00
29903;BME280;30288;50.514;9.678;2023-04-19T09:08:20;99358.28;;;12.56;100.00
29903;BME280;30288;50.514;9.678;2023-04-19T09:10:26;99360.16;;;12.15;100.00
29903;BME280;30288;50.514;9.678;2023-04-19T09:12:32;99357.78;;;12.42;100.00
29903;BME280;30288;50.514;9.678;2023-04-19T09:14:44;99349.34;;;12.43;100.00
29903;BME280;30288;50.514;9.678;2023-04-19T09:17:21;99353.34;;;12.51;100.00
29903;BME280;30288;50.514;9.678;2023-04-19T09:19:26;99359.22;;;12.52;100.00
29903;BME280;30288;50.514;9.678;2023-04-19T09:21:52;99355.72;;;12.25;100.00
29903;BME280;30288;50.514;9.678;2023-04-19T09:23:57;99352.47;;;12.20;100.00
29903;BME280;30288;50.514;9.678;2023-04-19T09:26:04;99347.69;;;12.42;100.00
29903;BME280;30288;50.514;9.678;2023-04-19T09:28:24;99341.06;;;12.38;100.00
29903;BME280;30288;50.514;9.678;2023-04-19T09:30:29;99340.06;;;12.45;100.00
29903;BME280;30288;50.514;9.678;2023-04-19T09:32:48;99342.00;;;12.66;100.00
29903;BME280;30288;50.514;9.678;2023-04-19T09:34:55;99342.38;;;12.83;100.00
29903;BME280;30288;50.514;9.678;2023-04-19T09:37:13;99337.94;;;12.91;100.00
29903;BME280;30288;50.514;9.678;2023-04-19T09:39:39;99341.47;;;13.17;100.00
29903;BME280;30288;50.514;9.678;2023-04-19T09:41:51;99336.28;;;12.90;100.00
29903;BME280;30288;50.514;9.678;2023-04-19T09:44:09;99336.28;;;12.59;100.00
29903;BME280;30288;50.514;9.678;2023-04-19T09:46:30;99329.13;;;12.75;100.00
29903;BME280;30288;50.514;9.678;2023-04-19T09:48:36;99327.25;;;12.82;100.00
29903;BME280;30288;50.514;9.678;2023-04-19T09:50:53;99325.03;;;12.71;100.00
29903;BME280;30288;50.514;9.678;2023-04-19T09:53:11;99320.59;;;13.08;100.00
29903;BME280;30288;50.514;9.678;2023-04-19T09:55:17;99317.66;;;13.24;100.00
29903;BME280;30288;50.514;9.678;2023-04-19T09:57:30;99318.88;;;13.10;100.00
29903;BME280;30288;50.514;9.678;2023-04-19T09:59:36;99315.03;;;13.54;100.00
29903;BME280;30288;50.514;9.678;2023-04-19T10:01:45;99315.22;;;13.76;100.00
29903;BME280;30288;50.514;9.678;2023-04-19T10:03:51;99316.69;;;13.28;87.81
29903;BME280;30288;50.514;9.678;2023-04-19T10:06:07;99308.31;;;12.96;88.56
29903;BME280;30288;50.514;9.678;2023-04-19T10:08:36;99307.03;;;13.12;89.02
29903;BME280;30288;50.514;9.678;2023-04-19T10:10:44;99310.94;;;13.23;98.95
29903;BME280;30288;50.514;9.678;2023-04-19T10:12:59;99307.09;;;13.11;85.61
29903;BME280;30288;50.514;9.678;2023-04-19T10:15:20;99300.38;;;13.08;93.30
29903;BME280;30288;50.514;9.678;2023-04-19T10:17:28;99297.75;;;12.82;88.96
29903;BME280;30288;50.514;9.678;2023-04-19T10:19:35;99299.50;;;12.80;87.79
29903;BME280;30288;50.514;9.678;2023-04-19T10:21:42;99295.31;;;13.08;90.46
29903;BME280;30288;50.514;9.678;2023-04-19T10:23:51;99292.00;;;13.06;87.55
29903;BME280;30288;50.514;9.678;2023-04-19T10:25:56;99289.63;;;13.02;84.70
29903;BME280;30288;50.514;9.678;2023-04-19T10:28:02;99286.22;;;13.31;87.24
29903;BME280;30288;50.514;9.678;2023-04-19T10:30:16;99270.22;;;13.58;85.23
29903;BME280;30288;50.514;9.678;2023-04-19T10:32:22;99262.63;;;13.84;85.05
29903;BME280;30288;50.514;9.678;2023-04-19T10:34:37;99269.97;;;14.17;87.30
29903;BME280;30288;50.514;9.678;2023-04-19T10:36:43;99274.69;;;14.52;87.32
29903;BME280;30288;50.514;9.678;2023-04-19T10:38:51;99257.59;;;14.80;83.53
29903;BME280;30288;50.514;9.678;2023-04-19T10:41:00;99251.44;;;14.64;73.71
29903;BME280;30288;50.514;9.678;2023-04-19T10:43:16;99249.69;;;14.66;75.03
29903;BME280;30288;50.514;9.678;2023-04-19T10:45:35;99253.22;;;14.62;71.85
29903;BME280;30288;50.514;9.678;2023-04-19T10:47:41;99245.38;;;14.45;68.58
29903;BME280;30288;50.514;9.678;2023-04-19T10:49:47;99246.28;;;14.18;73.89
29903;BME280;30288;50.514;9.678;2023-04-19T10:51:57;99244.78;;;14.38;74.99
29903;BME280;30288;50.514;9.678;2023-04-19T10:54:07;99231.75;;;14.71;74.52
29903;BME280;30288;50.514;9.678;2023-04-19T10:56:13;99237.19;;;14.83;79.08
29903;BME280;30288;50.514;9.678;2023-04-19T10:58:19;99223.78;;;15.03;75.05
29903;BME280;30288;50.514;9.678;2023-04-19T11:00:25;99219.31;;;15.10;72.90
29903;BME280;30288;50.514;9.678;2023-04-19T11:02:33;99222.94;;;15.03;69.86
29903;BME280;30288;50.514;9.678;2023-04-19T11:05:05;99218.22;;;14.94;69.11
29903;BME280;30288;50.514;9.678;2023-04-19T11:07:11;99215.25;;;15.06;68.11
29903;BME280;30288;50.514;9.678;2023-04-19T11:09:24;99216.91;;;14.83;64.14
29903;BME280;30288;50.514;9.678;2023-04-19T11:11:32;99214.38;;;15.27;66.04
29903;BME280;30288;50.514;9.678;2023-04-19T11:13:40;99208.28;;;15.11;64.90
29903;BME280;30288;50.514;9.678;2023-04-19T11:15:46;99203.94;;;15.13;65.35
29903;BME280;30288;50.514;9.678;2023-04-19T11:17:51;99205.50;;;14.95;64.62